Terminal Aerodrome Forecast
Issued by NWS

Home | Current Version | Previous Version | Text Only | Print | Product List | Glossary On
Versions: 1 2 3 4 5 6 7 8 9 10 11 12 13 14 15
472
FTUS44 KLZK 241720
TAFLLQ
TAF
KLLQ 241720Z 2418/2518 18012G22KT P6SM VCSH SCT025 BKN050
      TEMPO 2418/2422 BKN025
     FM250200 17012G24KT P6SM VCTS BKN035CB OVC050
      TEMPO 2502/2505 4SM TSRA BR OVC025CB
     FM250500 17012G22KT 4SM -TSRA BR BKN025CB
      TEMPO 2505/2509 VRB15G35KT 1SM +TSRA BR OVC015CB
     FM251400 19010G20KT P6SM VCTS SCT020CB OVC050 PROB30 2514/2518
      5SM TSRA BR BKN025CB=

USA.gov is the U.S. government's official web portal to all federal, state and local government web resources and services.